Time;durP1;ratioP1;P1;durP2;ratioP2;P2;SDS_P1;SDS_P2;PMS_P1;PMS_P2;Temp;Humidity;BMP_temperature;BMP_pressure;BME280_temperature;BME280_humidity;BME280_pressure;Samples;Min_cycle;Max_cycle;Signal;HPM_P1;HPM_P2
2021/08/06 00:00:44;;;;;;;8.80;3.25;;;;;;;21.58;70.95;99989.88;1698312;84;25791;-61
2021/08/06 00:03:13;;;;;;;11.12;2.37;;;;;;;21.57;71.41;99992.27;1696599;83;26210;-61
2021/08/06 00:05:42;;;;;;;7.17;2.77;;;;;;;21.60;71.79;99971.02;1691043;83;25849;-61
2021/08/06 00:08:09;;;;;;;8.13;2.50;;;;;;;21.57;71.67;99935.35;1687533;85;27457;-61
2021/08/06 00:10:36;;;;;;;10.72;2.90;;;;;;;21.53;72.08;99940.45;1673912;85;25785;-61
2021/08/06 00:13:03;;;;;;;10.48;2.92;;;;;;;21.55;71.56;99947.05;1678104;85;25803;-62
2021/08/06 00:15:30;;;;;;;11.50;3.02;;;;;;;21.56;71.21;99939.97;1695945;83;25846;-61
2021/08/06 00:17:57;;;;;;;7.58;3.17;;;;;;;21.57;71.36;99922.48;1680833;85;25829;-61
2021/08/06 00:20:24;;;;;;;10.65;3.20;;;;;;;21.55;71.76;99916.44;1675477;85;27447;-62
2021/08/06 00:22:51;;;;;;;10.48;2.80;;;;;;;21.52;71.39;99916.03;1675583;85;25796;-62
2021/08/06 00:25:18;;;;;;;8.05;2.70;;;;;;;21.49;71.93;99903.66;1675978;85;25758;-62
2021/08/06 00:27:45;;;;;;;6.10;2.60;;;;;;;21.45;71.97;99876.47;1675650;85;26358;-62
2021/08/06 00:30:12;;;;;;;10.20;2.80;;;;;;;21.44;71.95;99861.11;1700364;83;26256;-62
2021/08/06 00:32:40;;;;;;;7.80;2.40;;;;;;;21.45;71.89;99864.16;1702230;83;27472;-62
2021/08/06 00:35:09;;;;;;;7.53;2.83;;;;;;;21.46;72.20;99843.94;1704382;83;25850;-62
2021/08/06 00:37:36;;;;;;;16.52;3.67;;;;;;;21.49;72.25;99824.84;1704033;83;25850;-62
2021/08/06 00:40:08;;;;;;;7.55;2.77;;;;;;;21.48;71.77;99854.09;1702471;83;25672;-62
2021/08/06 00:42:37;;;;;;;9.03;2.70;;;;;;;21.52;71.93;99853.09;1702557;83;25644;-62
2021/08/06 00:45:06;;;;;;;8.35;2.47;;;;;;;21.54;71.76;99832.67;1702028;84;28176;-62
2021/08/06 00:47:35;;;;;;;16.07;3.50;;;;;;;21.53;73.03;99821.94;1702460;84;25806;-62
2021/08/06 00:50:09;;;;;;;8.48;2.95;;;;;;;21.52;72.14;99839.41;1682742;84;25966;-62
2021/08/06 00:52:36;;;;;;;10.15;2.85;;;;;;;21.57;72.13;99846.41;1702334;84;25740;-62
2021/08/06 00:55:07;;;;;;;13.48;2.83;;;;;;;21.58;71.80;99838.54;1682747;84;25833;-62
2021/08/06 00:57:35;;;;;;;8.68;2.72;;;;;;;21.52;72.39;99843.00;1703632;83;27483;-62
2021/08/06 01:00:06;;;;;;;8.48;2.45;;;;;;;21.47;71.89;99828.34;1702810;84;25738;-62
2021/08/06 01:02:56;;;;;;;9.78;2.60;;;;;;;21.48;72.15;99826.73;1704329;83;25802;-63
2021/08/06 01:05:33;;;;;;;8.95;2.58;;;;;;;21.53;72.36;99844.67;1712710;80;25804;-62
2021/08/06 01:08:08;;;;;;;5.78;2.72;;;;;;;21.62;72.68;99858.06;1713104;80;25807;-62
2021/08/06 01:10:41;;;;;;;6.70;2.55;;;;;;;21.68;72.60;99837.45;1712464;82;27496;-62
2021/08/06 01:13:12;;;;;;;8.18;2.75;;;;;;;21.68;71.95;99818.30;1714155;83;25746;-62
2021/08/06 01:15:43;;;;;;;9.98;2.55;;;;;;;21.67;71.87;99828.09;1714332;82;25720;-62
2021/08/06 01:18:15;;;;;;;10.40;2.70;;;;;;;21.68;71.77;99854.39;1717396;82;25829;-62
2021/08/06 01:20:51;;;;;;;10.68;2.40;;;;;;;21.62;71.71;99886.25;1717055;83;25809;-62
2021/08/06 01:23:37;;;;;;;11.73;3.10;;;;;;;21.57;71.67;99884.73;1741949;81;27454;-62
2021/08/06 01:26:11;;;;;;;8.85;2.67;;;;;;;21.55;71.09;99904.64;1745055;81;25765;-62
2021/08/06 01:28:46;;;;;;;14.33;3.00;;;;;;;21.46;70.89;99910.13;1760883;81;25492;-62
2021/08/06 01:31:18;;;;;;;7.40;2.77;;;;;;;21.37;71.68;99900.86;1767041;81;25513;-63
2021/08/06 01:33:46;;;;;;;11.97;3.10;;;;;;;21.37;71.89;99915.08;1766779;80;25794;-62
2021/08/06 01:36:15;;;;;;;8.40;3.10;;;;;;;21.43;72.21;99961.48;1766028;80;27490;-62
2021/08/06 01:38:42;;;;;;;6.55;2.62;;;;;;;21.46;72.17;99945.17;1750752;81;25682;-62
2021/08/06 01:41:34;;;;;;;9.63;2.65;;;;;;;21.49;72.48;99926.09;1749466;81;25786;-63
2021/08/06 01:44:29;;;;;;;6.53;2.67;;;;;;;21.47;72.18;99898.94;1749407;81;26265;-63
2021/08/06 01:47:06;;;;;;;7.30;2.10;;;;;;;21.43;72.03;99845.21;1748961;82;25783;-62
2021/08/06 01:49:49;;;;;;;5.62;2.33;;;;;;;21.45;71.77;99825.84;1749058;82;27452;-62
2021/08/06 01:52:24;;;;;;;9.43;2.17;;;;;;;21.45;71.98;99817.64;1735208;82;25766;-62
2021/08/06 01:54:54;;;;;;;12.20;2.62;;;;;;;21.39;74.06;99751.52;1748998;81;25698;-62
2021/08/06 01:57:24;;;;;;;8.20;2.52;;;;;;;21.29;74.15;99715.17;1738929;81;25874;-62
2021/08/06 01:59:53;;;;;;;9.20;2.42;;;;;;;21.22;73.56;99694.75;1736650;82;26072;-63
2021/08/06 02:02:21;;;;;;;5.60;2.50;;;;;;;21.17;73.23;99689.67;1736766;82;27565;-62
2021/08/06 02:04:48;;;;;;;12.98;3.42;;;;;;;21.16;73.68;99689.39;1727862;82;25730;-62
2021/08/06 02:07:19;;;;;;;10.23;3.02;;;;;;;21.15;73.25;99720.00;1710462;83;25828;-62
2021/08/06 02:09:48;;;;;;;7.12;2.87;;;;;;;21.18;73.43;99784.33;1715524;82;25753;-62
2021/08/06 02:12:17;;;;;;;9.20;2.95;;;;;;;21.18;73.52;99804.32;1716299;82;25806;-62
2021/08/06 02:14:49;;;;;;;10.38;2.92;;;;;;;21.16;73.13;99852.94;1705166;83;27652;-62
2021/08/06 02:17:20;;;;;;;14.10;3.50;;;;;;;21.04;73.41;99916.27;1699573;84;25831;-62
2021/08/06 02:19:50;;;;;;;9.20;3.00;;;;;;;20.90;73.46;99919.67;1695508;84;25749;-62
2021/08/06 02:22:19;;;;;;;7.37;3.10;;;;;;;20.84;74.78;99932.36;1743735;82;25719;-62
2021/08/06 02:24:50;;;;;;;8.15;2.90;;;;;;;20.80;74.75;99902.42;1762889;80;25789;-62
2021/08/06 02:27:21;;;;;;;6.97;2.90;;;;;;;20.78;74.59;99899.93;1766553;81;27486;-62
2021/08/06 02:29:50;;;;;;;8.80;2.90;;;;;;;20.74;74.15;99889.13;1766633;81;25812;-62
2021/08/06 02:32:19;;;;;;;9.65;3.17;;;;;;;20.76;73.92;99878.81;1771551;80;25784;-62
2021/08/06 02:34:49;;;;;;;5.92;2.75;;;;;;;20.81;73.97;99837.14;1766853;80;25734;-62
2021/08/06 02:37:16;;;;;;;7.17;3.02;;;;;;;20.83;73.62;99824.60;1740409;81;25736;-61
2021/08/06 02:39:44;;;;;;;8.65;2.42;;;;;;;20.86;73.38;99813.22;1762089;81;26942;-62
2021/08/06 02:42:11;;;;;;;6.20;2.62;;;;;;;20.88;73.41;99809.73;1767194;81;25711;-62
2021/08/06 02:44:40;;;;;;;7.90;2.65;;;;;;;20.87;73.34;99771.98;1760535;81;25716;-62
2021/08/06 02:47:09;;;;;;;13.83;3.95;;;;;;;20.84;73.07;99752.48;1733523;82;25723;-62
2021/08/06 02:49:37;;;;;;;7.87;2.40;;;;;;;20.88;73.45;99797.44;1736150;81;25806;-62
2021/08/06 02:52:07;;;;;;;7.72;2.45;;;;;;;20.87;73.42;99783.47;1743306;82;27521;-62
2021/08/06 02:54:36;;;;;;;11.48;3.50;;;;;;;20.91;74.64;99749.97;1755992;80;25821;-61
2021/08/06 02:57:04;;;;;;;12.75;2.87;;;;;;;20.87;76.24;99715.95;1767926;80;25697;-62
2021/08/06 02:59:31;;;;;;;14.05;2.80;;;;;;;20.76;75.55;99731.74;1774550;80;26369;-62
2021/08/06 03:01:58;;;;;;;8.58;2.52;;;;;;;20.70;74.65;99734.00;1770475;80;25796;-62
2021/08/06 03:04:26;;;;;;;12.33;2.90;;;;;;;20.61;74.71;99722.02;1766590;81;28196;-62
2021/08/06 03:06:53;;;;;;;13.90;3.05;;;;;;;20.60;75.91;99734.00;1767061;80;25785;-62
2021/08/06 03:09:22;;;;;;;7.05;2.62;;;;;;;20.62;75.52;99766.55;1766616;81;25810;-62
2021/08/06 03:11:51;;;;;;;8.10;3.45;;;;;;;20.69;75.57;99799.28;1767226;81;25704;-62
2021/08/06 03:14:18;;;;;;;11.85;3.20;;;;;;;20.73;75.33;99844.23;1766940;81;26465;-62
2021/08/06 03:16:46;;;;;;;13.58;3.85;;;;;;;20.74;75.00;99852.23;1743659;82;27489;-62
2021/08/06 03:19:13;;;;;;;14.33;3.62;;;;;;;20.72;74.56;99857.05;1743390;82;25704;-62
2021/08/06 03:21:40;;;;;;;10.88;4.03;;;;;;;20.73;74.73;99867.47;1743817;82;25832;-62
2021/08/06 03:24:08;;;;;;;12.30;4.00;;;;;;;20.71;74.65;99887.34;1756291;81;25705;-62
2021/08/06 03:26:35;;;;;;;9.90;3.50;;;;;;;20.70;74.61;99896.60;1766766;81;25633;-62
2021/08/06 03:29:04;;;;;;;10.48;3.62;;;;;;;20.71;74.32;99887.34;1745392;81;27572;-62
2021/08/06 03:31:31;;;;;;;9.08;3.67;;;;;;;20.73;74.23;99874.30;1766713;80;25779;-62
2021/08/06 03:33:59;;;;;;;11.50;3.52;;;;;;;20.79;74.20;99867.95;1745428;81;26603;-62
2021/08/06 03:36:27;;;;;;;16.15;6.00;;;;;;;20.87;74.31;99857.27;1741278;82;25870;-62
2021/08/06 03:38:55;;;;;;;13.30;4.15;;;;;;;20.93;74.32;99861.81;1755220;80;25764;-62
2021/08/06 03:41:24;;;;;;;11.85;4.37;;;;;;;20.99;74.35;99850.50;1745280;81;27467;-62
2021/08/06 03:43:53;;;;;;;9.90;4.35;;;;;;;21.01;74.19;99850.58;1766462;80;26503;-62
2021/08/06 03:46:20;;;;;;;9.88;3.27;;;;;;;21.03;73.91;99829.83;1745207;80;25756;-62
2021/08/06 03:48:48;;;;;;;8.20;3.27;;;;;;;21.03;73.53;99826.58;1766788;81;26169;-62
2021/08/06 03:51:15;;;;;;;10.70;3.30;;;;;;;21.01;73.15;99831.44;1766784;81;25753;-62
2021/08/06 03:53:43;;;;;;;11.88;4.10;;;;;;;20.99;72.70;99836.84;1766693;80;27465;-63
2021/08/06 03:56:11;;;;;;;10.13;3.60;;;;;;;20.97;72.63;99860.31;1767050;81;25670;-63
2021/08/06 03:58:40;;;;;;;6.83;3.37;;;;;;;20.98;72.50;99883.83;1765033;81;25519;-62
2021/08/06 04:01:07;;;;;;;11.22;3.55;;;;;;;21.00;72.53;99885.81;1767023;80;26601;-63
2021/08/06 04:03:35;;;;;;;9.88;3.12;;;;;;;21.02;72.38;99875.49;1767019;81;25911;-63
2021/08/06 04:06:03;;;;;;;15.93;3.22;;;;;;;21.04;72.44;99865.17;1733953;81;27510;-62
2021/08/06 04:08:33;;;;;;;8.78;3.50;;;;;;;21.15;72.37;99869.03;1762609;81;25948;-62
2021/08/06 04:11:00;;;;;;;8.08;3.40;;;;;;;21.20;72.12;99874.64;1766797;81;25744;-62
2021/08/06 04:13:27;;;;;;;15.68;3.72;;;;;;;21.24;72.14;99879.15;1767096;81;25828;-62
2021/08/06 04:15:54;;;;;;;12.47;3.77;;;;;;;21.29;72.06;99888.86;1747933;81;25822;-62
2021/08/06 04:18:22;;;;;;;14.23;3.15;;;;;;;21.33;71.95;99879.66;1738519;82;28193;-62
2021/08/06 04:20:49;;;;;;;10.45;3.70;;;;;;;21.36;71.88;99873.19;1731086;81;26693;-62
2021/08/06 04:23:16;;;;;;;16.37;3.72;;;;;;;21.40;71.99;99863.99;1713917;83;25699;-63
2021/08/06 04:25:44;;;;;;;19.50;4.10;;;;;;;21.42;71.64;99857.77;1714096;83;26303;-62
2021/08/06 04:28:11;;;;;;;7.45;3.20;;;;;;;21.44;71.54;99870.69;1693993;83;25838;-62
2021/08/06 04:30:38;;;;;;;11.78;3.58;;;;;;;21.47;71.27;99881.15;1713878;83;27565;-62
2021/08/06 04:33:06;;;;;;;11.53;3.60;;;;;;;21.49;71.32;99883.12;1713847;83;53864;-62
2021/08/06 04:35:34;;;;;;;17.57;4.80;;;;;;;21.49;71.05;99879.02;1696727;81;25835;-62
2021/08/06 04:38:02;;;;;;;13.48;3.75;;;;;;;21.49;70.89;99879.02;1766630;81;25804;-62
2021/08/06 04:40:31;;;;;;;14.43;3.75;;;;;;;21.48;70.82;99884.19;1766645;80;25782;-62
2021/08/06 04:42:58;;;;;;;13.15;3.95;;;;;;;21.47;70.63;99879.78;1765600;81;28641;-62
2021/08/06 04:45:26;;;;;;;12.53;3.75;;;;;;;21.49;70.66;99873.55;1766631;81;25685;-62
2021/08/06 04:47:55;;;;;;;12.93;3.87;;;;;;;21.52;70.42;99872.25;1698514;84;25754;-62
2021/08/06 04:50:24;;;;;;;11.30;3.37;;;;;;;21.57;70.49;99871.05;1691803;83;25787;-62
2021/08/06 04:52:52;;;;;;;13.45;3.95;;;;;;;21.61;70.13;99878.28;1697778;84;25827;-63
2021/08/06 04:55:20;;;;;;;16.67;4.28;;;;;;;21.66;70.02;99890.73;1706729;83;27490;-61
2021/08/06 04:57:48;;;;;;;19.62;4.37;;;;;;;21.71;70.00;99893.63;1721239;80;25816;-62
2021/08/06 05:00:17;;;;;;;8.43;3.70;;;;;;;21.73;69.73;99905.19;1738265;81;25777;-62
2021/08/06 05:02:46;;;;;;;15.60;5.08;;;;;;;21.75;69.26;99907.13;1763818;81;26172;-62
2021/08/06 05:05:14;;;;;;;17.90;4.10;;;;;;;21.75;69.21;99908.50;1741296;81;25882;-61
2021/08/06 05:07:43;;;;;;;10.88;3.72;;;;;;;21.81;69.40;99913.08;1723967;83;27420;-62
2021/08/06 05:10:10;;;;;;;15.03;3.85;;;;;;;21.87;69.44;99916.24;1721237;82;26537;-62
2021/08/06 05:12:38;;;;;;;13.58;4.35;;;;;;;21.93;69.63;99913.62;1729109;81;26149;-62
2021/08/06 05:15:06;;;;;;;11.75;4.67;;;;;;;21.97;69.59;99912.11;1760984;80;25714;-62
2021/08/06 05:17:34;;;;;;;9.63;3.47;;;;;;;21.99;69.51;99920.39;1739918;82;25894;-62
2021/08/06 05:20:03;;;;;;;14.30;3.72;;;;;;;22.01;69.62;99924.25;1739643;80;27458;-63
2021/08/06 05:22:31;;;;;;;10.43;3.52;;;;;;;22.08;69.96;99923.64;1774422;80;25842;-60
2021/08/06 05:24:58;;;;;;;12.28;3.87;;;;;;;22.13;69.88;99925.14;1774740;80;25745;-61
2021/08/06 05:27:25;;;;;;;13.60;3.30;;;;;;;22.23;69.94;99927.84;1774565;80;26173;-61
2021/08/06 05:29:52;;;;;;;13.48;3.72;;;;;;;22.33;69.86;99926.74;1774803;80;25746;-62
2021/08/06 05:32:20;;;;;;;10.32;4.45;;;;;;;22.41;69.74;99919.58;1772191;80;27472;-61
2021/08/06 05:34:48;;;;;;;8.00;3.05;;;;;;;22.49;69.58;99913.75;1766187;80;25791;-61
2021/08/06 05:37:14;;;;;;;19.50;4.30;;;;;;;22.61;69.64;99901.98;1757617;81;25834;-62
2021/08/06 05:39:42;;;;;;;15.80;4.42;;;;;;;22.76;69.46;99900.95;1762002;80;26128;-62
2021/08/06 05:42:10;;;;;;;17.07;3.45;;;;;;;22.87;68.85;99898.45;1762913;81;25772;-62
2021/08/06 05:44:38;;;;;;;18.45;3.80;;;;;;;22.93;68.63;99888.74;1738001;81;27523;-62
2021/08/06 05:47:05;;;;;;;10.75;3.80;;;;;;;23.02;68.31;99880.14;1767259;80;25950;-61
2021/08/06 05:49:32;;;;;;;13.48;2.65;;;;;;;23.11;68.75;99876.78;1767216;81;25807;-62
2021/08/06 05:51:59;;;;;;;16.07;3.47;;;;;;;23.20;68.50;99867.68;1766786;81;25707;-62
2021/08/06 05:54:27;;;;;;;22.58;3.80;;;;;;;23.31;68.16;99862.41;1766935;80;26404;-61
2021/08/06 05:56:55;;;;;;;16.93;4.05;;;;;;;23.35;67.46;99851.23;1749737;81;28055;-61
2021/08/06 05:59:22;;;;;;;9.10;3.10;;;;;;;23.40;66.50;99848.05;1724222;82;25816;-62
2021/08/06 06:01:50;;;;;;;9.30;3.27;;;;;;;23.35;65.63;99846.59;1759729;80;26109;-62
2021/08/06 06:04:24;;;;;;;14.85;3.90;;;;;;;23.36;65.78;99836.43;1758534;80;26194;-62
2021/08/06 06:06:55;;;;;;;8.70;3.15;;;;;;;23.29;64.45;99840.16;1712254;82;25540;-62
2021/08/06 06:09:26;;;;;;;10.95;3.77;;;;;;;23.22;64.82;99838.63;1710220;83;27478;-64
2021/08/06 06:11:53;;;;;;;6.28;3.02;;;;;;;23.20;65.08;99838.02;1710174;83;25824;-63
2021/08/06 06:14:22;;;;;;;9.63;3.90;;;;;;;23.18;65.34;99842.39;1710729;82;25741;-64
2021/08/06 06:16:50;;;;;;;10.48;3.25;;;;;;;23.16;65.25;99848.62;1763212;80;25686;-63
2021/08/06 06:19:19;;;;;;;15.93;3.40;;;;;;;23.11;65.19;99863.61;1753619;80;25782;-63
2021/08/06 06:21:47;;;;;;;9.25;2.85;;;;;;;23.04;65.51;99877.45;1746833;80;27406;-62
2021/08/06 06:24:15;;;;;;;14.68;3.98;;;;;;;23.05;65.85;99881.87;1720337;83;26380;-62
2021/08/06 06:26:43;;;;;;;11.22;3.60;;;;;;;23.10;65.85;99879.77;1733477;82;25794;-62
2021/08/06 06:29:10;;;;;;;10.58;3.30;;;;;;;23.17;65.62;99881.02;1739543;81;26107;-62
2021/08/06 06:31:38;;;;;;;12.85;3.22;;;;;;;23.25;65.65;99884.23;1761257;80;25675;-62
2021/08/06 06:34:05;;;;;;;6.45;3.10;;;;;;;23.33;65.26;99873.44;1777229;80;27448;-63
2021/08/06 06:36:34;;;;;;;16.73;3.12;;;;;;;23.43;64.97;99864.56;1777316;79;25531;-62
2021/08/06 06:39:01;;;;;;;9.70;2.55;;;;;;;23.53;64.38;99870.25;1737296;80;25742;-62
2021/08/06 06:41:29;;;;;;;6.95;3.50;;;;;;;23.66;64.22;99862.81;1753209;81;25738;-62
2021/08/06 06:43:57;;;;;;;8.50;3.80;;;;;;;23.80;63.66;99868.30;1750767;81;25731;-62
2021/08/06 06:46:26;;;;;;;10.80;3.10;;;;;;;23.92;64.10;99854.49;1742823;80;27470;-62
2021/08/06 06:48:53;;;;;;;13.75;3.08;;;;;;;24.05;63.75;99863.84;1741427;82;25765;-62
2021/08/06 06:51:21;;;;;;;8.98;2.20;;;;;;;24.14;62.75;99859.30;1741508;82;25481;-62
2021/08/06 06:53:48;;;;;;;7.15;2.17;;;;;;;24.22;60.13;99879.50;1741760;81;25768;-63
2021/08/06 06:56:15;;;;;;;14.38;3.00;;;;;;;24.17;60.57;99878.87;1741510;82;25783;-62
2021/08/06 06:58:43;;;;;;;10.63;3.22;;;;;;;24.16;60.93;99896.99;1740031;82;27356;-63
2021/08/06 07:01:10;;;;;;;13.43;2.70;;;;;;;24.15;61.10;99911.81;1748054;81;26576;-62
2021/08/06 07:03:37;;;;;;;13.72;3.00;;;;;;;24.09;61.20;99907.28;1691801;83;25796;-62
2021/08/06 07:06:04;;;;;;;5.53;3.05;;;;;;;24.01;61.22;99918.16;1689928;84;25891;-62
2021/08/06 07:08:31;;;;;;;7.65;3.33;;;;;;;23.91;61.38;99926.46;1690052;84;25832;-62
2021/08/06 07:10:59;;;;;;;13.25;3.02;;;;;;;23.81;61.43;99934.50;1690255;84;27874;-62
2021/08/06 07:13:26;;;;;;;12.93;2.98;;;;;;;23.68;61.66;99927.38;1689785;84;25932;-62
2021/08/06 07:15:53;;;;;;;11.25;3.17;;;;;;;23.57;61.98;99900.80;1702023;82;25764;-62
2021/08/06 07:18:26;;;;;;;18.30;4.40;;;;;;;23.49;62.24;99902.55;1689231;84;26184;-62
2021/08/06 07:20:55;;;;;;;17.30;3.52;;;;;;;23.41;62.54;99943.55;1689098;84;25772;-61
2021/08/06 07:23:22;;;;;;;15.20;3.62;;;;;;;23.32;63.04;99984.27;1688969;84;27921;-61
2021/08/06 07:25:49;;;;;;;9.75;4.15;;;;;;;23.26;63.54;100001.70;1689103;84;25562;-61
2021/08/06 07:28:16;;;;;;;8.60;3.00;;;;;;;23.19;63.83;100014.68;1689043;84;25834;-62
2021/08/06 07:30:42;;;;;;;12.25;3.80;;;;;;;23.10;64.57;100022.41;1688738;84;25640;-62
2021/08/06 07:33:10;;;;;;;10.05;2.77;;;;;;;22.98;64.53;100033.38;1736597;81;25774;-62
2021/08/06 07:35:37;;;;;;;8.65;2.87;;;;;;;22.91;64.79;100020.29;1734050;82;27524;-61
2021/08/06 07:38:04;;;;;;;10.72;2.98;;;;;;;22.87;65.25;100010.33;1734067;82;25749;-62
2021/08/06 07:40:31;;;;;;;11.63;3.52;;;;;;;22.84;65.28;99984.78;1734115;82;25753;-62
2021/08/06 07:42:59;;;;;;;16.48;3.55;;;;;;;22.83;65.35;99970.77;1761105;80;25789;-62
2021/08/06 07:45:27;;;;;;;10.05;3.05;;;;;;;22.83;65.31;99966.66;1768452;80;25789;-62
2021/08/06 07:47:55;;;;;;;8.38;2.80;;;;;;;22.83;65.37;99972.95;1767039;81;27208;-63
2021/08/06 07:50:22;;;;;;;13.43;3.33;;;;;;;22.85;65.69;99988.34;1766655;80;25803;-62
2021/08/06 07:52:49;;;;;;;8.13;2.17;;;;;;;22.81;65.72;99980.61;1756555;81;25753;-61
2021/08/06 07:55:16;;;;;;;15.05;3.42;;;;;;;22.83;65.84;99978.99;1737110;82;26202;-61
2021/08/06 07:57:44;;;;;;;14.35;3.15;;;;;;;22.81;65.78;99964.67;1752767;80;25723;-63
2021/08/06 08:00:13;;;;;;;11.28;2.80;;;;;;;22.77;65.07;99956.09;1756124;80;27534;-61
2021/08/06 08:02:47;;;;;;;14.60;3.33;;;;;;;22.76;65.09;99944.00;1726471;82;25854;-61
2021/08/06 08:05:20;;;;;;;11.70;3.42;;;;;;;22.75;65.28;99926.70;1722317;82;25815;-62
2021/08/06 08:07:46;;;;;;;17.12;3.35;;;;;;;22.73;65.15;99904.72;1725486;82;25968;-63
2021/08/06 08:10:13;;;;;;;14.45;3.30;;;;;;;22.73;65.13;99895.12;1679455;84;25861;-62
2021/08/06 08:12:41;;;;;;;9.83;3.00;;;;;;;22.68;64.59;99866.23;1697447;83;27483;-61
2021/08/06 08:15:23;;;;;;;11.35;4.35;;;;;;;22.65;64.92;99849.18;1705122;83;25794;-63
2021/08/06 08:18:00;;;;;;;9.10;3.40;;;;;;;22.64;65.67;99839.28;1704634;83;25803;-63
2021/08/06 08:20:37;;;;;;;12.78;2.90;;;;;;;22.61;66.55;99848.53;1687117;83;25713;-62
2021/08/06 08:23:12;;;;;;;7.55;3.15;;;;;;;22.58;66.32;99867.66;1666866;85;25783;-63
2021/08/06 08:25:48;;;;;;;14.35;2.85;;;;;;;22.59;66.58;99875.33;1675440;83;27481;-64
2021/08/06 08:28:22;;;;;;;4.58;2.50;;;;;;;22.59;66.57;99883.00;1677403;84;25835;-63
2021/08/06 08:30:51;;;;;;;9.13;3.15;;;;;;;22.65;66.75;99879.85;1709463;82;25760;-62
2021/08/06 08:33:20;;;;;;;11.60;3.70;;;;;;;22.74;66.82;99864.71;1729597;82;25744;-62
2021/08/06 08:35:49;;;;;;;12.82;3.47;;;;;;;22.85;66.91;99851.23;1729810;82;25792;-62
2021/08/06 08:38:17;;;;;;;6.28;3.40;;;;;;;22.97;66.72;99848.78;1729563;82;28278;-63
2021/08/06 08:40:45;;;;;;;10.90;3.98;;;;;;;23.09;66.46;99852.86;1709047;82;25828;-61
2021/08/06 08:43:12;;;;;;;12.68;4.42;;;;;;;23.22;66.46;99852.34;1719623;82;25787;-62
2021/08/06 08:45:40;;;;;;;19.90;4.28;;;;;;;23.39;66.42;99856.53;1705378;84;26314;-62
2021/08/06 08:48:11;;;;;;;11.33;4.53;;;;;;;23.50;66.04;99843.28;1702981;84;25739;-61
2021/08/06 08:50:41;;;;;;;13.45;6.17;;;;;;;23.65;65.78;99818.05;1700900;84;27624;-61
2021/08/06 08:53:10;;;;;;;9.75;3.72;;;;;;;23.75;65.13;99800.38;1698867;82;25764;-61
2021/08/06 08:55:38;;;;;;;4.55;2.98;;;;;;;23.76;64.14;99785.58;1691298;83;25846;-62
2021/08/06 08:58:09;;;;;;;9.18;2.70;;;;;;;23.85;64.34;99780.49;1690818;83;25836;-62
2021/08/06 09:00:36;;;;;;;6.87;2.72;;;;;;;24.02;64.11;99763.24;1665602;84;25858;-62
2021/08/06 09:03:04;;;;;;;12.82;6.05;;;;;;;24.18;63.63;99755.52;1683524;85;27463;-62
2021/08/06 09:05:31;;;;;;;13.40;4.62;;;;;;;24.37;63.46;99758.00;1693650;84;25741;-62
2021/08/06 09:08:05;;;;;;;16.15;3.90;;;;;;;24.54;62.90;99762.06;1684918;84;25747;-62
2021/08/06 09:10:37;;;;;;;17.12;3.85;;;;;;;24.66;61.39;99763.31;1690176;83;26566;-63
2021/08/06 09:13:24;;;;;;;17.32;4.03;;;;;;;24.80;61.37;99761.91;1677377;83;25968;-63
2021/08/06 09:15:59;;;;;;;7.83;3.45;;;;;;;24.91;60.55;99768.36;1686323;83;28196;-62
2021/08/06 09:18:34;;;;;;;8.95;3.10;;;;;;;25.04;60.20;99764.37;1677079;85;25769;-61
2021/08/06 09:21:19;;;;;;;5.90;2.83;;;;;;;25.20;59.59;99740.63;1677203;84;25813;-62
2021/08/06 09:23:56;;;;;;;8.48;2.47;;;;;;;25.40;59.37;99740.03;1680977;83;25889;-61
2021/08/06 09:26:34;;;;;;;8.43;3.22;;;;;;;25.68;57.14;99735.89;1692124;83;25824;-62
2021/08/06 09:29:18;;;;;;;48.23;35.50;;;;;;;25.80;57.20;99733.77;1697694;83;27353;-62
2021/08/06 09:31:56;;;;;;;14.20;3.70;;;;;;;26.08;57.61;99729.02;1699335;84;26545;-63
2021/08/06 09:34:36;;;;;;;8.70;2.15;;;;;;;26.34;56.12;99736.10;1696245;84;26339;-62
2021/08/06 09:37:16;;;;;;;3.77;2.45;;;;;;;26.49;54.93;99747.20;1696603;84;25777;-62
2021/08/06 09:39:52;;;;;;;11.03;2.70;;;;;;;26.54;53.97;99760.20;1698363;83;26528;-63
2021/08/06 09:42:29;;;;;;;9.73;3.25;;;;;;;26.66;54.60;99758.63;1694740;84;27484;-63
2021/08/06 09:45:07;;;;;;;7.67;2.65;;;;;;;26.95;53.46;99759.59;1696339;84;25794;-63
2021/08/06 09:47:36;;;;;;;21.05;3.00;;;;;;;27.28;53.26;99765.22;1700138;83;25727;-63
2021/08/06 09:50:09;;;;;;;8.05;2.90;;;;;;;27.63;52.13;99776.64;1694619;84;26285;-62
2021/08/06 09:52:40;;;;;;;5.42;2.60;;;;;;;27.84;51.71;99764.23;1696112;84;25758;-63
2021/08/06 09:55:11;;;;;;;5.05;2.70;;;;;;;28.11;51.93;99758.44;1743408;81;28021;-62
2021/08/06 09:57:45;;;;;;;8.00;2.42;;;;;;;28.49;51.03;99760.30;1722315;82;25784;-62
2021/08/06 10:00:18;;;;;;;6.55;2.30;;;;;;;28.83;50.71;99762.97;1745523;81;25791;-61
2021/08/06 10:02:44;;;;;;;;;;;;;;;29.21;49.41;99761.95;1764124;81;26496;-63
2021/08/06 10:05:18;;;;;;;10.15;2.12;;;;;;;29.55;46.68;99773.67;1771895;80;25712;-63
2021/08/06 10:07:49;;;;;;;5.92;2.75;;;;;;;29.89;47.17;99778.97;1771773;80;27471;-62
2021/08/06 10:10:24;;;;;;;5.28;2.00;;;;;;;30.36;46.47;99784.41;1732296;81;26429;-64
2021/08/06 10:12:53;;;;;;;7.30;1.92;;;;;;;30.85;44.20;99770.55;1731225;82;25758;-63
2021/08/06 10:15:22;;;;;;;6.42;1.72;;;;;;;31.42;44.79;99760.09;1721260;81;26137;-62
2021/08/06 10:17:52;;;;;;;4.80;1.87;;;;;;;32.09;43.14;99757.08;1758282;81;25731;-63
2021/08/06 10:20:23;;;;;;;5.58;2.10;;;;;;;32.72;39.74;99760.36;1757574;81;28334;-64
2021/08/06 10:22:51;;;;;;;5.90;2.02;;;;;;;33.05;39.97;99761.64;1738122;81;25798;-62
2021/08/06 10:25:21;;;;;;;10.43;2.90;;;;;;;33.68;40.03;99769.44;1738714;82;26325;-62
2021/08/06 10:27:50;;;;;;;7.45;2.20;;;;;;;33.96;39.42;99778.52;1738916;82;25695;-62
2021/08/06 10:30:34;;;;;;;8.98;2.52;;;;;;;34.02;39.06;99784.80;1740315;80;25710;-62
2021/08/06 10:33:28;;;;;;;6.92;2.12;;;;;;;33.83;39.14;99785.79;1747657;82;28004;-62
2021/08/06 10:36:05;;;;;;;4.60;2.08;;;;;;;33.81;39.71;99796.43;1747544;82;25922;-62
2021/08/06 10:38:43;;;;;;;11.22;2.42;;;;;;;34.11;39.70;99801.03;1747612;82;25892;-63
2021/08/06 10:41:23;;;;;;;8.38;2.35;;;;;;;34.40;37.84;99793.32;1739454;80;26290;-62
2021/08/06 10:44:03;;;;;;;12.10;2.60;;;;;;;34.92;38.39;99804.72;1727535;82;25881;-62
2021/08/06 10:46:52;;;;;;;5.15;2.00;;;;;;;35.53;37.05;99801.25;1725569;80;27505;-63
2021/08/06 10:49:19;;;;;;;10.35;2.20;;;;;;;35.80;36.77;99802.07;1739116;82;25777;-62
2021/08/06 10:51:47;;;;;;;8.73;2.42;;;;;;;36.22;36.81;99797.91;1739124;82;25928;-62
2021/08/06 10:54:29;;;;;;;6.62;1.87;;;;;;;36.54;34.86;99808.27;1739312;82;26128;-63
2021/08/06 10:57:21;;;;;;;9.83;2.40;;;;;;;36.83;34.39;99798.27;1716690;83;26356;-64
2021/08/06 10:59:50;;;;;;;5.42;2.05;;;;;;;37.10;34.13;99797.80;1717923;83;32184;-63
2021/08/06 11:02:38;;;;;;;5.25;1.82;;;;;;;37.25;34.51;99799.79;1737807;80;25790;-62
2021/08/06 11:05:39;;;;;;;5.37;2.00;;;;;;;37.66;33.37;99800.12;1738328;81;25894;-63
2021/08/06 11:08:43;;;;;;;5.40;2.15;;;;;;;37.72;34.72;99796.78;1738618;82;25849;-65
2021/08/06 11:11:32;;;;;;;7.28;2.08;;;;;;;37.93;33.14;99795.95;1739490;80;25892;-63
2021/08/06 11:13:59;;;;;;;7.15;1.82;;;;;;;38.26;33.75;99781.06;1738887;82;26879;-63
2021/08/06 11:16:25;;;;;;;9.95;1.80;;;;;;;38.66;32.78;99786.63;1757090;81;25766;-62
2021/08/06 11:18:52;;;;;;;7.42;2.02;;;;;;;38.82;32.17;99777.75;1746214;81;25770;-63
2021/08/06 11:21:21;;;;;;;7.12;1.92;;;;;;;39.38;32.01;99775.48;1734406;80;25821;-62
2021/08/06 11:23:57;;;;;;;7.90;1.67;;;;;;;39.83;30.54;99767.36;1729264;81;25858;-64
2021/08/06 11:26:25;;;;;;;9.43;1.85;;;;;;;40.32;29.15;99762.03;1733444;82;27542;-63
2021/08/06 11:28:55;;;;;;;6.05;2.45;;;;;;;40.41;28.94;99766.67;1733901;82;26268;-64
2021/08/06 11:31:22;;;;;;;5.05;1.87;;;;;;;39.98;29.00;99774.77;1729919;82;25702;-62
2021/08/06 11:34:04;;;;;;;11.75;2.12;;;;;;;39.66;29.86;99767.04;1741480;82;25850;-64
2021/08/06 11:36:34;;;;;;;9.50;2.35;;;;;;;39.02;30.42;99758.89;1741187;81;25817;-63
2021/08/06 11:39:14;;;;;;;6.03;2.10;;;;;;;38.43;30.97;99753.39;1741381;82;27409;-64
2021/08/06 11:41:49;;;;;;;5.20;1.75;;;;;;;38.44;31.18;99738.75;1741308;82;25933;-63
2021/08/06 11:44:17;;;;;;;8.40;1.90;;;;;;;39.08;31.05;99749.03;1726263;82;25787;-62